Time;durP1;ratioP1;P1;durP2;ratioP2;P2;SDS_P1;SDS_P2;PMS_P1;PMS_P2;Temp;Humidity;BMP_temperature;BMP_pressure;BME280_temperature;BME280_humidity;BME280_pressure;Samples;Min_cycle;Max_cycle;Signal;HPM_P1;HPM_P2
2021/06/20 00:01:05;;;;;;;10.70;7.35;;;;;;;27.63;50.86;98078.91;3559570;40;20053;-59
2021/06/20 00:03:33;;;;;;;19.67;7.43;;;;;;;27.59;51.07;98077.16;3559880;40;20050;-60
2021/06/20 00:06:06;;;;;;;24.92;8.68;;;;;;;27.52;51.17;98085.03;3559066;40;20049;-59
2021/06/20 00:08:34;;;;;;;19.17;8.27;;;;;;;27.44;50.72;98088.53;3559632;40;20068;-59
2021/06/20 00:11:03;;;;;;;29.83;7.65;;;;;;;27.32;50.42;98089.19;3559918;40;20391;-58
2021/06/20 00:13:31;;;;;;;24.58;7.28;;;;;;;27.24;50.75;98096.22;3560065;40;20291;-59
2021/06/20 00:15:59;;;;;;;17.00;7.80;;;;;;;27.10;50.74;98112.63;3559693;40;20085;-59
2021/06/20 00:18:27;;;;;;;24.08;7.63;;;;;;;27.06;51.45;98119.75;3559802;40;20049;-63
2021/06/20 00:20:54;;;;;;;20.92;7.53;;;;;;;26.93;51.27;98123.41;3559751;40;20054;-59
2021/06/20 00:23:22;;;;;;;23.23;7.25;;;;;;;26.87;51.87;98133.63;3559592;40;20098;-59
2021/06/20 00:25:50;;;;;;;23.58;7.57;;;;;;;26.76;52.34;98129.59;3559585;40;20105;-59
2021/06/20 00:28:19;;;;;;;21.67;8.00;;;;;;;26.66;52.20;98155.09;3558523;40;20045;-59
2021/06/20 00:30:49;;;;;;;21.95;7.82;;;;;;;26.62;53.20;98169.59;3559359;40;20046;-59
2021/06/20 00:33:18;;;;;;;22.88;8.32;;;;;;;26.61;53.29;98179.59;3559413;40;20061;-58
2021/06/20 00:35:46;;;;;;;19.92;7.65;;;;;;;26.56;53.25;98170.81;3559233;40;20089;-57
2021/06/20 00:38:13;;;;;;;18.33;7.85;;;;;;;26.45;53.67;98167.59;3559280;40;20050;-57
2021/06/20 00:40:41;;;;;;;24.40;7.38;;;;;;;26.45;53.95;98156.75;3560181;40;20082;-57
2021/06/20 00:43:09;;;;;;;24.33;7.78;;;;;;;26.42;53.88;98151.94;3559304;40;20089;-57
2021/06/20 00:45:38;;;;;;;16.98;7.32;;;;;;;26.33;54.25;98170.88;3559546;40;20089;-57
2021/06/20 00:48:06;;;;;;;18.10;7.55;;;;;;;26.32;54.20;98174.66;3560211;40;20093;-57
2021/06/20 00:50:34;;;;;;;16.73;7.75;;;;;;;26.28;54.04;98175.59;3560712;40;20050;-58
2021/06/20 00:53:04;;;;;;;24.15;7.18;;;;;;;26.27;54.25;98176.72;3560610;40;20086;-58
2021/06/20 00:55:34;;;;;;;18.02;6.88;;;;;;;26.33;53.70;98168.16;3559320;40;20056;-59
2021/06/20 00:58:03;;;;;;;15.23;7.03;;;;;;;26.32;53.30;98169.25;3558997;40;20034;-57
2021/06/20 01:00:31;;;;;;;16.65;6.97;;;;;;;26.25;53.62;98174.31;3559143;40;20048;-58
2021/06/20 01:03:00;;;;;;;21.67;7.25;;;;;;;26.26;54.00;98180.53;3559689;40;20050;-58
2021/06/20 01:05:28;;;;;;;17.23;6.80;;;;;;;26.30;54.20;98186.94;3559229;40;20351;-58
2021/06/20 01:07:57;;;;;;;16.48;6.22;;;;;;;26.23;53.92;98179.25;3559044;40;20056;-58
2021/06/20 01:10:27;;;;;;;16.00;6.60;;;;;;;26.18;53.64;98177.47;3559151;40;20049;-58
2021/06/20 01:12:55;;;;;;;15.70;6.07;;;;;;;26.10;53.26;98175.50;3559120;40;20470;-58
2021/06/20 01:15:23;;;;;;;16.85;4.90;;;;;;;26.08;52.50;98180.41;3559016;40;20403;-58
2021/06/20 01:17:51;;;;;;;14.15;5.13;;;;;;;26.08;52.54;98174.19;3558766;40;20089;-59
2021/06/20 01:20:21;;;;;;;17.40;5.18;;;;;;;26.06;51.90;98177.22;3558893;40;20053;-58
2021/06/20 01:22:52;;;;;;;12.65;4.70;;;;;;;25.88;51.21;98184.44;3558931;40;20061;-58
2021/06/20 01:25:23;;;;;;;11.27;4.32;;;;;;;25.90;50.83;98178.72;3558955;40;20139;-59
2021/06/20 01:27:56;;;;;;;14.57;3.90;;;;;;;25.78;50.66;98178.47;3558805;40;20049;-59
2021/06/20 01:30:26;;;;;;;17.85;4.63;;;;;;;25.75;50.65;98185.25;3559084;40;20097;-58
2021/06/20 01:32:55;;;;;;;10.73;3.92;;;;;;;25.65;50.23;98186.31;3558710;40;20123;-58
2021/06/20 01:35:23;;;;;;;9.55;3.97;;;;;;;25.63;50.25;98188.50;3559051;40;20058;-58
2021/06/20 01:37:54;;;;;;;10.18;3.63;;;;;;;25.49;49.93;98193.16;3558692;40;20042;-58
2021/06/20 01:40:23;;;;;;;9.52;3.55;;;;;;;25.44;50.41;98199.50;3559267;40;20045;-57
2021/06/20 01:42:52;;;;;;;10.98;3.25;;;;;;;25.40;50.49;98201.22;3558957;40;20056;-58
2021/06/20 01:45:22;;;;;;;6.95;3.05;;;;;;;25.40;49.79;98206.63;3559239;40;20049;-58
2021/06/20 01:47:52;;;;;;;8.65;3.55;;;;;;;25.35;49.79;98205.91;3558152;40;20057;-59
2021/06/20 01:50:20;;;;;;;9.20;2.90;;;;;;;25.36;49.88;98211.03;3558733;40;20065;-59
2021/06/20 01:52:48;;;;;;;10.43;2.85;;;;;;;25.28;50.32;98211.75;3558643;40;20050;-59
2021/06/20 01:55:17;;;;;;;8.50;3.03;;;;;;;25.22;50.36;98217.56;3558651;40;20090;-59
2021/06/20 01:57:46;;;;;;;7.65;3.10;;;;;;;25.20;50.67;98228.69;3558480;40;20065;-59
2021/06/20 02:00:16;;;;;;;5.43;2.72;;;;;;;25.17;50.56;98234.69;3559510;40;20070;-58
2021/06/20 02:02:44;;;;;;;6.40;3.17;;;;;;;25.05;51.06;98234.38;3607785;23;20034;-67
2021/06/20 02:05:13;;;;;;;9.00;3.33;;;;;;;24.98;50.97;98229.34;3538253;40;20050;-67
2021/06/20 02:07:42;;;;;;;9.63;3.50;;;;;;;24.94;51.44;98222.94;3537984;40;20054;-67
2021/06/20 02:10:12;;;;;;;7.68;3.20;;;;;;;24.85;51.76;98209.34;3538962;40;20046;-68
2021/06/20 02:12:41;;;;;;;9.35;3.40;;;;;;;24.83;52.16;98205.34;3538887;40;20046;-67
2021/06/20 02:15:11;;;;;;;10.00;3.17;;;;;;;24.86;52.10;98221.78;3538109;40;20055;-66
2021/06/20 02:17:40;;;;;;;8.32;2.75;;;;;;;24.86;52.12;98237.16;3538794;40;20055;-66
2021/06/20 02:20:10;;;;;;;6.95;2.72;;;;;;;24.91;52.20;98247.91;3539093;40;20379;-64
2021/06/20 02:22:39;;;;;;;8.27;3.55;;;;;;;24.85;52.30;98266.09;3539230;40;20292;-64
2021/06/20 02:25:09;;;;;;;5.95;3.38;;;;;;;24.87;52.29;98290.94;3539098;40;20062;-65
2021/06/20 02:27:37;;;;;;;10.75;3.05;;;;;;;24.78;52.52;98305.44;3538646;40;20400;-65
2021/06/20 02:30:07;;;;;;;8.68;3.08;;;;;;;24.66;52.94;98295.13;3539084;40;20077;-64
2021/06/20 02:32:36;;;;;;;9.57;3.00;;;;;;;24.61;53.03;98303.28;3538955;40;20043;-65
2021/06/20 02:35:05;;;;;;;8.43;3.45;;;;;;;24.55;53.37;98299.88;3538976;40;20055;-65
2021/06/20 02:37:33;;;;;;;7.78;2.92;;;;;;;24.46;53.85;98313.28;3541662;40;20053;-65
2021/06/20 02:40:01;;;;;;;9.27;3.13;;;;;;;24.46;54.02;98315.19;3543156;40;20115;-65
2021/06/20 02:42:28;;;;;;;11.02;3.80;;;;;;;24.46;54.04;98326.00;3543223;40;20043;-65
2021/06/20 02:44:56;;;;;;;5.55;2.85;;;;;;;24.41;54.18;98323.34;3541924;40;20054;-64
2021/06/20 02:47:25;;;;;;;7.07;2.90;;;;;;;24.34;54.43;98323.69;3541030;40;20058;-65
2021/06/20 02:49:53;;;;;;;8.10;3.03;;;;;;;24.25;54.81;98322.78;3541609;40;20087;-65
2021/06/20 02:52:21;;;;;;;14.80;3.85;;;;;;;24.23;54.96;98324.94;3540970;40;20047;-65
2021/06/20 02:54:52;;;;;;;5.00;2.70;;;;;;;24.17;55.23;98313.44;3541299;40;20055;-65
2021/06/20 02:57:20;;;;;;;6.75;2.88;;;;;;;;;;3540658;40;20061;-66
2021/06/20 02:59:49;;;;;;;10.65;3.58;;;;;;;23.97;56.14;98338.03;3541941;40;20046;-67
2021/06/20 03:02:18;;;;;;;7.30;3.10;;;;;;;23.87;56.68;98336.25;3539785;40;20039;-65
2021/06/20 03:04:47;;;;;;;7.70;3.20;;;;;;;23.84;56.81;98338.72;3547689;40;20083;-65
2021/06/20 03:07:15;;;;;;;4.55;2.78;;;;;;;23.84;56.96;98330.63;3542341;40;20089;-66
2021/06/20 03:09:44;;;;;;;8.43;3.55;;;;;;;23.86;56.83;98345.44;3545663;40;20101;-66
2021/06/20 03:12:13;;;;;;;9.32;3.60;;;;;;;23.87;56.96;98355.16;3547325;40;20062;-65
2021/06/20 03:14:42;;;;;;;6.43;3.30;;;;;;;23.86;56.75;98358.16;3541038;40;20049;-64
2021/06/20 03:17:11;;;;;;;10.15;3.45;;;;;;;23.84;57.00;98363.00;3540305;40;20340;-65
2021/06/20 03:19:40;;;;;;;9.32;3.80;;;;;;;23.80;57.04;98365.50;3540310;40;20058;-65
2021/06/20 03:22:10;;;;;;;7.35;3.17;;;;;;;23.80;57.41;98359.28;3539292;40;20058;-66
2021/06/20 03:24:39;;;;;;;7.90;3.13;;;;;;;23.72;57.45;98360.75;3540310;40;20051;-66
2021/06/20 03:27:08;;;;;;;7.43;3.40;;;;;;;23.56;57.98;98368.22;3539178;40;20354;-66
2021/06/20 03:29:37;;;;;;;8.30;3.58;;;;;;;23.45;58.62;98374.78;3540188;40;20115;-66
2021/06/20 03:32:06;;;;;;;9.10;2.88;;;;;;;23.50;58.50;98380.13;3540355;40;20046;-66
2021/06/20 03:34:34;;;;;;;7.97;3.05;;;;;;;23.40;58.80;98394.53;3540276;40;20371;-66
2021/06/20 03:37:04;;;;;;;5.63;3.10;;;;;;;23.48;58.75;98372.34;3539825;40;20050;-66
2021/06/20 03:39:33;;;;;;;6.80;3.10;;;;;;;23.51;58.61;98370.13;3539257;40;20044;-66
2021/06/20 03:42:01;;;;;;;6.57;2.95;;;;;;;23.48;58.27;98388.53;3541061;40;20094;-66
2021/06/20 03:44:29;;;;;;;6.72;3.00;;;;;;;23.43;58.72;98383.19;3543625;40;20340;-66
2021/06/20 03:46:58;;;;;;;6.32;3.28;;;;;;;23.45;58.85;98399.06;3543004;40;20050;-66
2021/06/20 03:49:26;;;;;;;4.40;2.58;;;;;;;23.39;58.83;98402.91;3543999;40;20106;-66
2021/06/20 03:51:54;;;;;;;5.63;3.08;;;;;;;23.41;58.65;98398.03;3551326;40;20054;-66
2021/06/20 03:54:24;;;;;;;7.95;3.05;;;;;;;23.41;58.89;98393.44;3544101;40;20051;-66
2021/06/20 03:56:53;;;;;;;7.95;2.95;;;;;;;23.43;58.94;98377.78;3543818;40;20054;-66
2021/06/20 03:59:23;;;;;;;7.28;3.10;;;;;;;23.43;58.76;98371.56;3543982;40;20043;-66
2021/06/20 04:01:51;;;;;;;10.45;3.63;;;;;;;23.42;58.94;98376.16;3544019;40;20047;-66
2021/06/20 04:04:20;;;;;;;7.13;3.28;;;;;;;23.42;58.81;98378.06;3543136;40;20055;-66
2021/06/20 04:06:49;;;;;;;6.75;3.10;;;;;;;23.43;58.85;98374.25;3543730;40;20046;-66
2021/06/20 04:09:16;;;;;;;6.82;3.20;;;;;;;23.41;58.66;98373.75;3542171;40;20043;-66
2021/06/20 04:11:46;;;;;;;7.80;3.15;;;;;;;23.40;58.62;98378.34;3543456;40;20082;-66
2021/06/20 04:14:16;;;;;;;6.38;2.85;;;;;;;23.45;58.52;98372.91;3543641;40;20054;-66
2021/06/20 04:16:44;;;;;;;7.18;3.50;;;;;;;23.46;58.46;98374.50;3541380;40;20050;-66
2021/06/20 04:19:12;;;;;;;5.82;2.83;;;;;;;23.38;58.57;98377.03;3541566;40;20057;-66
2021/06/20 04:21:40;;;;;;;8.38;3.20;;;;;;;23.34;58.80;98382.19;3540205;40;20065;-66
2021/06/20 04:24:08;;;;;;;6.57;2.97;;;;;;;23.30;58.94;98380.34;3540120;40;20087;-66
2021/06/20 04:26:36;;;;;;;9.10;3.35;;;;;;;23.30;58.71;98383.84;3546798;40;20074;-66
2021/06/20 04:29:04;;;;;;;5.47;3.35;;;;;;;23.25;58.88;98389.31;3539814;40;20054;-66
2021/06/20 04:31:33;;;;;;;6.32;2.85;;;;;;;23.30;58.85;98393.84;3539712;40;20079;-64
2021/06/20 04:34:01;;;;;;;8.07;3.05;;;;;;;23.29;58.63;98405.72;3539628;40;20083;-65
2021/06/20 04:36:30;;;;;;;7.32;2.80;;;;;;;23.31;58.53;98401.66;3539502;40;20070;-65
2021/06/20 04:38:58;;;;;;;7.15;2.80;;;;;;;23.33;58.53;98407.56;3538760;40;20171;-65
2021/06/20 04:41:26;;;;;;;7.95;2.72;;;;;;;23.26;58.35;98406.28;3539767;40;20070;-65
2021/06/20 04:43:59;;;;;;;6.97;3.08;;;;;;;23.22;58.40;98419.53;3546729;40;20090;-65
2021/06/20 04:46:30;;;;;;;6.68;2.72;;;;;;;23.20;58.59;98425.22;3539610;40;20055;-65
2021/06/20 04:49:03;;;;;;;5.55;2.50;;;;;;;23.22;58.35;98416.81;3539785;40;20086;-65
2021/06/20 04:51:32;;;;;;;8.88;2.92;;;;;;;23.18;58.52;98418.47;3539825;40;20054;-65
2021/06/20 04:54:00;;;;;;;7.40;3.40;;;;;;;23.14;58.45;98418.25;3539552;40;20061;-65
2021/06/20 04:56:28;;;;;;;4.18;2.50;;;;;;;23.15;58.25;98419.06;3539423;40;20090;-65
2021/06/20 04:58:56;;;;;;;6.70;2.83;;;;;;;23.11;58.59;98418.03;3546614;40;20144;-65
2021/06/20 05:01:24;;;;;;;3.83;2.67;;;;;;;23.15;58.42;98421.78;3539624;40;20034;-65
2021/06/20 05:03:53;;;;;;;7.47;2.90;;;;;;;23.26;58.30;98422.47;3538541;40;20293;-65
2021/06/20 05:06:22;;;;;;;6.43;2.40;;;;;;;23.30;58.20;98421.59;3538120;40;20404;-65
2021/06/20 05:08:50;;;;;;;6.53;2.80;;;;;;;23.36;57.93;98430.47;3539698;40;20133;-65
2021/06/20 05:11:18;;;;;;;7.32;2.90;;;;;;;23.27;58.07;98435.69;3546763;40;20058;-65
2021/06/20 05:13:46;;;;;;;7.70;2.70;;;;;;;23.15;58.29;98433.34;3539237;40;20349;-64
2021/06/20 05:16:14;;;;;;;4.22;2.33;;;;;;;23.16;58.60;98434.16;3539442;40;20046;-65
2021/06/20 05:18:42;;;;;;;5.63;2.00;;;;;;;23.24;58.47;98436.25;3538439;40;20050;-66
2021/06/20 05:21:10;;;;;;;6.40;2.60;;;;;;;23.30;58.07;98439.69;3539081;40;20051;-65
2021/06/20 05:23:39;;;;;;;7.07;2.95;;;;;;;23.33;58.22;98434.53;3539478;40;20090;-64
2021/06/20 05:26:06;;;;;;;5.18;2.22;;;;;;;23.33;58.39;98439.91;3538997;40;20091;-65
2021/06/20 05:28:34;;;;;;;9.60;2.85;;;;;;;23.38;58.02;98450.66;3539375;40;20057;-66
2021/06/20 05:31:02;;;;;;;7.22;2.92;;;;;;;23.30;58.19;98447.78;3539373;40;20114;-66
2021/06/20 05:33:30;;;;;;;6.40;2.72;;;;;;;23.32;58.06;98448.31;3539202;40;20061;-65
2021/06/20 05:35:58;;;;;;;8.07;2.78;;;;;;;23.27;58.32;98443.75;3539008;40;20055;-66
2021/06/20 05:38:26;;;;;;;6.03;3.45;;;;;;;23.33;58.14;98431.03;3539361;40;20328;-66
2021/06/20 05:40:55;;;;;;;7.05;3.90;;;;;;;23.40;58.13;98426.09;3539247;40;20318;-66
2021/06/20 05:43:22;;;;;;;15.20;11.38;;;;;;;23.51;57.86;98419.50;3539213;40;20107;-65
2021/06/20 05:45:50;;;;;;;7.15;2.90;;;;;;;23.55;57.37;98422.44;3546369;40;20376;-66
2021/06/20 05:48:18;;;;;;;5.63;2.70;;;;;;;23.59;57.17;98424.25;3539460;40;20420;-66
2021/06/20 05:50:46;;;;;;;6.63;3.17;;;;;;;23.60;57.29;98425.91;3539362;40;20051;-66
2021/06/20 05:53:13;;;;;;;9.30;2.88;;;;;;;23.59;57.14;98421.56;3539022;40;20040;-65
2021/06/20 05:55:41;;;;;;;4.95;3.10;;;;;;;23.57;57.17;98423.75;3539464;40;20054;-65
2021/06/20 05:58:11;;;;;;;5.07;2.72;;;;;;;23.51;57.22;98406.00;3539080;40;20066;-65
2021/06/20 06:00:39;;;;;;;5.88;2.40;;;;;;;23.61;57.03;98410.50;3540891;40;20071;-65
2021/06/20 06:03:07;;;;;;;5.93;2.97;;;;;;;23.67;56.90;98422.88;3542017;40;20122;-66
2021/06/20 06:05:35;;;;;;;7.03;2.63;;;;;;;23.83;56.64;98428.88;3539301;40;20371;-65
2021/06/20 06:08:03;;;;;;;5.25;2.35;;;;;;;23.98;56.18;98426.00;3538824;40;20042;-65
2021/06/20 06:10:31;;;;;;;5.90;2.75;;;;;;;24.01;55.79;98420.03;3538245;40;20053;-65
2021/06/20 06:12:59;;;;;;;4.47;2.90;;;;;;;24.19;55.47;98407.66;3538996;40;20078;-65
2021/06/20 06:15:29;;;;;;;3.85;2.75;;;;;;;24.43;55.15;98404.91;3539202;40;20062;-65
2021/06/20 06:17:57;;;;;;;3.75;2.30;;;;;;;24.59;54.28;98416.28;3539211;40;20412;-65
2021/06/20 06:20:25;;;;;;;5.75;2.65;;;;;;;24.53;54.09;98434.47;3539582;40;20085;-66
2021/06/20 06:22:53;;;;;;;6.18;2.88;;;;;;;24.23;54.68;98428.38;3539607;40;20047;-64
2021/06/20 06:25:21;;;;;;;6.50;2.80;;;;;;;24.12;55.18;98440.41;3539474;40;20038;-65
2021/06/20 06:27:50;;;;;;;6.55;2.75;;;;;;;24.33;54.91;98429.31;3538018;40;20053;-65
2021/06/20 06:30:19;;;;;;;9.05;3.15;;;;;;;24.38;54.60;98434.72;3539039;40;20055;-65
2021/06/20 06:32:48;;;;;;;5.30;2.50;;;;;;;24.42;54.14;98433.81;3538945;40;20079;-65
2021/06/20 06:35:17;;;;;;;8.00;2.90;;;;;;;24.47;54.18;98419.44;3538906;40;20047;-64
2021/06/20 06:37:45;;;;;;;6.88;3.08;;;;;;;24.67;53.80;98410.22;3538667;40;20065;-65
2021/06/20 06:40:14;;;;;;;4.07;2.65;;;;;;;24.67;53.56;98421.03;3538821;40;20070;-66
2021/06/20 06:42:42;;;;;;;5.45;2.67;;;;;;;24.73;53.51;98406.34;3538764;40;20053;-66
2021/06/20 06:45:11;;;;;;;4.72;2.50;;;;;;;24.75;53.37;98406.84;3538889;40;20057;-66
2021/06/20 06:47:38;;;;;;;4.45;2.40;;;;;;;24.80;53.31;98411.38;3538715;40;20046;-66
2021/06/20 06:50:09;;;;;;;4.70;2.50;;;;;;;24.79;52.69;98426.00;3538859;40;20336;-66
2021/06/20 06:52:37;;;;;;;6.00;3.05;;;;;;;24.75;53.04;98444.69;3538931;40;20292;-66
2021/06/20 06:55:09;;;;;;;6.45;2.80;;;;;;;24.72;53.08;98439.88;3538817;40;20054;-66
2021/06/20 06:57:38;;;;;;;8.70;2.60;;;;;;;24.75;53.10;98427.69;3538531;40;20058;-66
2021/06/20 07:00:11;;;;;;;5.28;2.65;;;;;;;24.78;52.70;98418.97;3543499;40;20102;-66
2021/06/20 07:02:39;;;;;;;5.00;2.67;;;;;;;24.74;52.96;98420.66;3543334;40;20050;-64
2021/06/20 07:05:09;;;;;;;3.80;2.83;;;;;;;24.82;52.99;98419.97;3543785;40;20047;-65
2021/06/20 07:07:37;;;;;;;5.18;2.80;;;;;;;25.03;52.33;98423.16;3546355;40;20065;-65
2021/06/20 07:10:06;;;;;;;4.07;2.40;;;;;;;25.02;52.04;98429.66;3538970;40;20046;-65
2021/06/20 07:12:34;;;;;;;3.30;2.58;;;;;;;25.12;51.81;98435.75;3546088;40;20093;-64
2021/06/20 07:15:04;;;;;;;7.90;3.05;;;;;;;25.19;51.63;98440.78;3539075;40;20096;-64
2021/06/20 07:17:33;;;;;;;7.78;2.70;;;;;;;25.20;51.47;98445.06;3539930;40;20324;-64
2021/06/20 07:20:03;;;;;;;8.98;3.63;;;;;;;25.09;51.77;98457.16;3544742;40;20324;-65
2021/06/20 07:22:32;;;;;;;5.53;2.45;;;;;;;25.23;51.08;98444.50;3544485;40;20075;-65
2021/06/20 07:25:01;;;;;;;4.70;2.58;;;;;;;25.45;51.03;98438.41;3541159;40;20050;-65
2021/06/20 07:27:29;;;;;;;6.38;2.67;;;;;;;25.53;50.42;98437.72;3538871;40;20151;-65
2021/06/20 07:29:56;;;;;;;3.50;2.50;;;;;;;25.71;50.23;98433.31;3538894;40;20050;-65
2021/06/20 07:32:25;;;;;;;7.00;2.83;;;;;;;25.89;49.20;98435.16;3538622;40;20258;-65
2021/06/20 07:34:53;;;;;;;4.70;2.80;;;;;;;25.89;49.16;98421.63;3537964;40;20050;-66
2021/06/20 07:37:21;;;;;;;4.35;2.67;;;;;;;25.78;48.98;98408.56;3538323;40;20050;-65
2021/06/20 07:39:50;;;;;;;5.75;2.45;;;;;;;25.70;48.23;98410.06;3538790;40;20119;-65
2021/06/20 07:42:18;;;;;;;4.72;2.50;;;;;;;25.55;48.23;98411.13;3538747;40;20046;-64
2021/06/20 07:44:46;;;;;;;4.63;2.80;;;;;;;25.67;48.19;98399.81;3538941;40;20062;-64
2021/06/20 07:47:13;;;;;;;4.68;2.95;;;;;;;25.67;47.99;98403.31;3538829;40;20054;-65
2021/06/20 07:49:41;;;;;;;4.22;2.75;;;;;;;25.74;47.87;98402.13;3547071;40;20051;-64
2021/06/20 07:52:09;;;;;;;4.65;2.70;;;;;;;25.96;47.11;98399.53;3540003;40;20038;-66
2021/06/20 07:54:38;;;;;;;4.55;3.00;;;;;;;26.10;47.42;98389.47;3540116;40;20051;-66
2021/06/20 07:57:07;;;;;;;7.05;3.65;;;;;;;26.21;47.01;98390.06;3539898;40;20050;-65
2021/06/20 07:59:35;;;;;;;4.32;3.25;;;;;;;26.27;46.67;98388.03;3539921;40;20054;-66
2021/06/20 08:02:03;;;;;;;5.50;2.88;;;;;;;26.24;46.76;98394.84;3539919;40;20069;-66
2021/06/20 08:04:31;;;;;;;3.50;3.03;;;;;;;26.16;47.10;98377.41;3589564;23;20260;-62
2021/06/20 08:06:59;;;;;;;6.88;3.38;;;;;;;26.18;47.20;98374.41;3559357;40;20050;-63
2021/06/20 08:09:27;;;;;;;4.97;3.58;;;;;;;26.13;47.10;98386.16;3559339;40;20046;-63
2021/06/20 08:11:54;;;;;;;4.88;3.28;;;;;;;25.98;47.39;98386.50;3559511;40;20077;-62
2021/06/20 08:14:23;;;;;;;6.88;2.95;;;;;;;26.05;47.40;98394.22;3559366;40;20368;-63
2021/06/20 08:16:51;;;;;;;6.05;3.20;;;;;;;26.02;46.39;98395.63;3559192;40;20049;-63
2021/06/20 08:19:19;;;;;;;5.70;2.95;;;;;;;25.80;46.42;98382.81;3559138;40;20062;-63
2021/06/20 08:21:48;;;;;;;4.05;2.60;;;;;;;25.78;46.43;98373.38;3559425;40;20058;-64
2021/06/20 08:24:18;;;;;;;4.15;2.50;;;;;;;25.76;46.18;98373.66;3559330;40;20228;-62
2021/06/20 08:26:46;;;;;;;4.13;2.35;;;;;;;25.73;46.45;98384.28;3558679;40;20057;-62
2021/06/20 08:29:16;;;;;;;5.05;2.47;;;;;;;25.69;47.30;98376.78;3558256;40;20115;-62
2021/06/20 08:31:46;;;;;;;4.43;2.90;;;;;;;25.81;47.20;98368.16;3559512;40;20414;-63
2021/06/20 08:34:14;;;;;;;3.33;2.70;;;;;;;26.01;46.78;98368.84;3559261;40;20090;-63
2021/06/20 08:36:41;;;;;;;6.40;2.95;;;;;;;26.26;46.81;98362.84;3559131;40;20074;-63
2021/06/20 08:39:09;;;;;;;6.00;2.67;;;;;;;26.38;46.00;98373.94;3559530;40;20033;-63
2021/06/20 08:41:41;;;;;;;3.60;2.55;;;;;;;26.47;45.48;98376.75;3559352;40;20426;-63
2021/06/20 08:44:17;;;;;;;4.07;2.20;;;;;;;26.41;45.68;98367.94;3559571;40;20041;-63
2021/06/20 08:46:47;;;;;;;4.40;2.58;;;;;;;26.23;46.10;98385.13;3560332;40;20049;-63
2021/06/20 08:49:15;;;;;;;6.00;2.72;;;;;;;26.30;45.74;98390.94;3561444;40;20026;-63
2021/06/20 08:51:46;;;;;;;6.18;2.50;;;;;;;26.28;45.74;98389.63;3562930;40;20045;-63
2021/06/20 08:54:14;;;;;;;6.20;3.30;;;;;;;26.51;45.95;98394.00;3561951;40;20334;-63
2021/06/20 08:56:43;;;;;;;3.55;2.50;;;;;;;26.71;45.15;98400.06;3561884;40;20053;-62
2021/06/20 08:59:15;;;;;;;5.20;2.45;;;;;;;26.68;44.97;98399.56;3561909;40;20053;-67
2021/06/20 09:01:43;;;;;;;6.30;3.00;;;;;;;26.71;45.02;98386.50;3558869;40;20356;-63
2021/06/20 09:04:14;;;;;;;3.72;2.83;;;;;;;26.73;45.00;98393.22;3559494;40;20131;-65
2021/06/20 09:06:41;;;;;;;3.40;2.70;;;;;;;26.62;45.33;98376.41;3559211;40;20061;-63
2021/06/20 09:09:09;;;;;;;4.47;2.88;;;;;;;26.61;44.97;98392.97;3559158;40;20057;-63
2021/06/20 09:11:39;;;;;;;7.05;3.13;;;;;;;26.52;44.94;98390.19;3559150;40;20060;-64
2021/06/20 09:14:10;;;;;;;5.57;2.67;;;;;;;26.52;44.48;98387.47;3559222;40;20089;-63
2021/06/20 09:16:46;;;;;;;5.15;2.67;;;;;;;26.43;45.17;98381.97;3559064;40;20085;-61
2021/06/20 09:19:16;;;;;;;4.53;2.70;;;;;;;26.54;44.80;98393.41;3559785;40;20090;-62
2021/06/20 09:21:52;;;;;;;4.47;2.78;;;;;;;26.66;45.18;98388.22;3560503;40;20315;-61
2021/06/20 09:24:20;;;;;;;4.30;3.45;;;;;;;26.85;44.67;98381.81;3558918;40;20078;-62
2021/06/20 09:26:53;;;;;;;7.80;3.35;;;;;;;27.02;44.20;98379.19;3560078;40;20086;-62
2021/06/20 09:29:29;;;;;;;6.50;2.70;;;;;;;27.02;43.68;98378.38;3560138;40;20050;-64
2021/06/20 09:31:59;;;;;;;4.15;2.47;;;;;;;26.89;44.12;98385.50;3559696;40;20045;-63
2021/06/20 09:34:28;;;;;;;4.07;2.10;;;;;;;26.97;44.10;98371.19;3559855;40;20057;-62
2021/06/20 09:37:00;;;;;;;6.15;4.00;;;;;;;27.06;44.16;98371.22;3559514;40;20064;-63
2021/06/20 09:39:30;;;;;;;6.03;3.47;;;;;;;27.23;43.75;98363.22;3558177;40;20041;-63
2021/06/20 09:42:00;;;;;;;3.78;2.95;;;;;;;27.42;43.62;98357.53;3559434;40;20081;-63
2021/06/20 09:44:35;;;;;;;4.53;2.42;;;;;;;27.27;43.30;98350.63;3558936;40;20396;-63
2021/06/20 09:47:04;;;;;;;2.60;2.00;;;;;;;27.14;43.50;98349.59;3558566;40;20077;-64
2021/06/20 09:49:37;;;;;;;5.18;3.03;;;;;;;27.32;43.54;98361.34;3558986;40;20045;-63
2021/06/20 09:52:07;;;;;;;3.53;3.13;;;;;;;27.50;43.67;98354.06;3559233;40;20307;-63
2021/06/20 09:54:37;;;;;;;2.85;2.40;;;;;;;27.59;43.23;98346.72;3558805;40;20050;-63
2021/06/20 09:57:15;;;;;;;4.18;2.42;;;;;;;27.78;42.65;98343.78;3559557;40;20053;-63
2021/06/20 09:59:54;;;;;;;4.50;2.45;;;;;;;27.76;42.02;98339.78;3559127;40;20053;-63
2021/06/20 10:02:25;;;;;;;5.13;2.10;;;;;;;27.76;42.10;98337.88;3559104;40;20410;-63
2021/06/20 10:04:55;;;;;;;3.53;2.28;;;;;;;27.72;42.42;98338.78;3559054;40;20044;-63
2021/06/20 10:07:26;;;;;;;4.68;2.30;;;;;;;27.73;41.96;98330.34;3558427;40;20085;-63
2021/06/20 10:09:54;;;;;;;3.78;2.13;;;;;;;27.72;42.66;98341.50;3558850;40;20041;-63
2021/06/20 10:12:23;;;;;;;5.68;2.90;;;;;;;27.74;41.84;98342.03;3558685;40;20351;-64
2021/06/20 10:14:53;;;;;;;4.43;2.58;;;;;;;27.62;42.44;98327.09;3558686;40;20365;-63
2021/06/20 10:17:28;;;;;;;3.63;2.17;;;;;;;27.81;42.21;98332.28;3558401;40;20070;-63
2021/06/20 10:20:01;;;;;;;2.95;2.70;;;;;;;28.05;41.83;98323.69;3558475;40;20057;-63
2021/06/20 10:22:37;;;;;;;6.65;4.15;;;;;;;28.17;41.28;98327.66;3557477;40;20045;-63
2021/06/20 10:25:08;;;;;;;5.07;3.13;;;;;;;28.20;41.28;98327.84;3558844;40;20403;-63
2021/06/20 10:27:41;;;;;;;4.43;2.35;;;;;;;28.20;41.07;98308.81;3558575;40;20090;-63
2021/06/20 10:30:11;;;;;;;9.70;4.78;;;;;;;28.21;40.85;98301.44;3558959;40;20034;-63
2021/06/20 10:32:41;;;;;;;4.80;2.15;;;;;;;28.19;40.44;98287.41;3558733;40;20071;-63
2021/06/20 10:35:15;;;;;;;2.30;2.10;;;;;;;28.09;40.45;98288.53;3558725;40;20081;-63
2021/06/20 10:37:44;;;;;;;3.63;2.00;;;;;;;27.93;39.95;98296.38;3558252;40;20089;-63
2021/06/20 10:40:21;;;;;;;4.13;2.15;;;;;;;28.00;39.28;98301.28;3557547;40;20399;-63
2021/06/20 10:42:49;;;;;;;4.00;2.13;;;;;;;27.92;39.50;98297.47;3558585;40;20058;-62
2021/06/20 10:45:28;;;;;;;5.95;4.40;;;;;;;27.89;39.93;98284.53;3558578;40;20054;-65
2021/06/20 10:47:58;;;;;;;5.22;3.03;;;;;;;28.07;39.43;98277.97;3557442;40;20058;-64
2021/06/20 10:50:38;;;;;;;4.07;2.22;;;;;;;28.17;40.19;98285.03;3558993;40;20049;-64
2021/06/20 10:53:06;;;;;;;6.10;4.32;;;;;;;28.32;39.46;98270.13;3558736;40;20057;-64
2021/06/20 10:55:40;;;;;;;3.30;2.45;;;;;;;28.34;39.50;98267.88;3558698;40;20061;-63
2021/06/20 10:58:17;;;;;;;7.75;6.25;;;;;;;28.29;38.32;98266.13;3558523;40;20050;-63
2021/06/20 11:00:45;;;;;;;6.10;2.78;;;;;;;27.99;39.53;98270.63;3558202;40;20046;-63
2021/06/20 11:03:15;;;;;;;3.05;2.00;;;;;;;28.04;39.84;98259.59;3566333;40;20332;-64
2021/06/20 11:05:50;;;;;;;4.35;2.70;;;;;;;28.20;39.36;98250.94;3557494;40;20308;-64
2021/06/20 11:08:35;;;;;;;6.47;4.80;;;;;;;28.35;39.53;98251.25;3558310;40;20335;-63
2021/06/20 11:11:15;;;;;;;5.07;2.10;;;;;;;28.31;38.46;98250.28;3558346;40;20030;-64
2021/06/20 11:13:45;;;;;;;4.28;3.38;;;;;;;28.22;39.01;98227.00;3558244;40;20042;-64
2021/06/20 11:16:23;;;;;;;4.47;2.72;;;;;;;28.32;38.90;98226.63;3558277;40;20046;-64
2021/06/20 11:19:04;;;;;;;4.15;2.38;;;;;;;28.24;38.26;98219.28;3558602;40;20068;-64
2021/06/20 11:21:34;;;;;;;6.55;2.58;;;;;;;27.94;39.14;98213.75;3559981;40;20111;-63
2021/06/20 11:24:02;;;;;;;3.65;2.63;;;;;;;27.97;39.49;98226.69;3560165;40;20042;-64
2021/06/20 11:26:30;;;;;;;3.42;2.42;;;;;;;28.26;39.15;98217.06;3559880;40;20054;-64
2021/06/20 11:28:59;;;;;;;5.50;3.10;;;;;;;28.49;39.19;98213.03;3559906;40;20057;-64
2021/06/20 11:31:27;;;;;;;4.20;2.40;;;;;;;28.52;38.68;98211.59;3559030;40;20030;-64
2021/06/20 11:33:56;;;;;;;4.03;2.55;;;;;;;28.61;38.10;98204.97;3558562;40;20442;-64
2021/06/20 11:36:27;;;;;;;4.35;2.65;;;;;;;28.53;38.97;98213.16;3559633;40;20073;-64
2021/06/20 11:38:56;;;;;;;4.53;3.13;;;;;;;28.63;39.14;98212.84;3558877;40;20056;-64
2021/06/20 11:41:25;;;;;;;8.30;2.40;;;;;;;28.77;38.04;98210.69;3559407;40;20053;-64